createdAt,value
2017-11-01T00:00:40.025Z,986.3
2017-11-01T00:01:41.976Z,986.3
2017-11-01T00:02:43.949Z,986.3
2017-11-01T00:03:45.947Z,986.3
2017-11-01T00:04:47.976Z,986.3
2017-11-01T00:05:49.910Z,986.2
2017-11-01T00:06:51.890Z,986.2
2017-11-01T00:07:54.234Z,986.2
2017-11-01T00:08:56.168Z,986.2
2017-11-01T00:09:58.176Z,986.2
2017-11-01T00:11:00.108Z,986.4
2017-11-01T00:12:01.995Z,986.2
2017-11-01T00:13:04.008Z,986.2
2017-11-01T00:14:05.989Z,986.2
2017-11-01T00:15:07.926Z,986.2
2017-11-01T00:16:09.875Z,986.2
2017-11-01T00:17:11.782Z,986.2
2017-11-01T00:18:13.806Z,986.2
2017-11-01T00:19:15.996Z,986.2
2017-11-01T00:20:18.025Z,986.2
2017-11-01T00:21:19.960Z,986.2
2017-11-01T00:22:21.902Z,986.2
2017-11-01T00:23:23.867Z,986.2
2017-11-01T00:24:25.847Z,986.1
2017-11-01T00:25:27.739Z,986.2
2017-11-01T00:26:29.706Z,986.1
2017-11-01T00:27:31.630Z,986.1
2017-11-01T00:28:33.658Z,986.1
2017-11-01T00:29:35.614Z,986.1
2017-11-01T00:30:37.548Z,986.2
2017-11-01T00:31:39.445Z,986.2
2017-11-01T00:32:41.427Z,986.2
2017-11-01T00:33:43.417Z,986.1
2017-11-01T00:34:45.357Z,986.1
2017-11-01T00:35:47.327Z,986.1
2017-11-01T00:36:49.220Z,986.1
2017-11-01T00:37:51.165Z,986.1
2017-11-01T00:38:53.163Z,986.1
2017-11-01T00:39:55.355Z,986.1
2017-11-01T00:40:57.306Z,986.1
2017-11-01T00:41:59.277Z,986.1
2017-11-01T00:43:01.251Z,986.1
2017-11-01T00:44:03.573Z,986.1
2017-11-01T00:45:05.456Z,986
2017-11-01T00:46:07.331Z,986
2017-11-01T00:47:09.407Z,986
2017-11-01T00:48:11.333Z,986
2017-11-01T00:49:13.247Z,986
2017-11-01T00:50:15.294Z,985.9
2017-11-01T00:51:17.257Z,985.9
2017-11-01T00:52:19.220Z,986.2
2017-11-01T00:53:21.192Z,986
2017-11-01T00:54:23.351Z,986.1
2017-11-01T00:55:25.264Z,986
2017-11-01T00:56:27.219Z,985.9
2017-11-01T00:57:29.362Z,986
2017-11-01T00:58:31.271Z,986
2017-11-01T00:59:33.240Z,986.1
2017-11-01T01:00:35.205Z,986
2017-11-01T01:01:37.161Z,985.9
2017-11-01T01:02:38.998Z,986
2017-11-01T01:03:40.912Z,985.9
2017-11-01T01:04:42.822Z,985.9
2017-11-01T01:05:44.784Z,986
2017-11-01T01:06:46.790Z,985.9
2017-11-01T01:07:48.752Z,985.9
2017-11-01T01:08:50.720Z,985.8
2017-11-01T01:09:52.909Z,985.8
2017-11-01T01:10:54.844Z,985.9
2017-11-01T01:11:56.749Z,985.9
2017-11-01T01:12:58.703Z,985.8
2017-11-01T01:14:00.598Z,985.8
2017-11-01T01:15:02.544Z,985.8
2017-11-01T01:16:04.473Z,985.8
2017-11-01T01:17:06.386Z,985.8
2017-11-01T01:18:08.368Z,985.7
2017-11-01T01:19:10.300Z,985.8
2017-11-01T01:20:12.660Z,985.7
2017-11-01T01:21:14.580Z,985.7
2017-11-01T01:22:16.577Z,985.7
2017-11-01T01:23:18.514Z,985.7
2017-11-01T01:24:20.484Z,985.7
2017-11-01T01:25:22.611Z,985.7
2017-11-01T01:26:24.603Z,985.6
2017-11-01T01:27:26.581Z,985.7
2017-11-01T01:28:28.505Z,985.7
2017-11-01T01:29:30.644Z,985.7
2017-11-01T01:30:32.846Z,985.6
2017-11-01T01:31:34.848Z,985.8
2017-11-01T01:32:36.766Z,985.6
2017-11-01T01:33:38.772Z,985.6
2017-11-01T01:34:40.722Z,985.5
2017-11-01T01:35:43.108Z,985.7
2017-11-01T01:36:44.989Z,985.6
2017-11-01T01:37:46.949Z,985.6
2017-11-01T01:38:48.882Z,985.6
2017-11-01T01:39:50.776Z,985.5
2017-11-01T01:40:53.004Z,985.5
2017-11-01T01:41:55.217Z,985.6
2017-11-01T01:42:57.195Z,985.5
2017-11-01T01:43:59.072Z,985.6
2017-11-01T01:45:00.968Z,985.4
2017-11-01T01:46:02.944Z,985.5
2017-11-01T01:47:04.853Z,985.5
2017-11-01T01:48:06.769Z,985.5
2017-11-01T01:49:08.697Z,985.5
2017-11-01T01:50:10.660Z,985.6
2017-11-01T01:51:12.907Z,985.5
2017-11-01T01:52:14.989Z,985.5
2017-11-01T01:53:16.976Z,985.5
2017-11-01T01:54:19.059Z,985.6
2017-11-01T01:55:21.017Z,985.4
2017-11-01T01:56:23.319Z,985.6
2017-11-01T01:57:25.270Z,985.5
2017-11-01T01:58:27.407Z,985.5
2017-11-01T01:59:29.352Z,985.6
2017-11-01T02:00:31.224Z,985.6
2017-11-01T02:01:33.186Z,985.7
2017-11-01T02:02:35.058Z,985.4
2017-11-01T02:03:37.033Z,985.3
2017-11-01T02:04:39.286Z,985.5
2017-11-01T02:05:41.157Z,985.4
2017-11-01T02:06:43.193Z,985.5
2017-11-01T02:07:45.136Z,985.5
2017-11-01T02:08:47.092Z,985.5
2017-11-01T02:09:49.245Z,985.5
2017-11-01T02:10:51.191Z,985.5
2017-11-01T02:11:53.383Z,985.4
2017-11-01T02:12:55.368Z,985.4
2017-11-01T02:13:57.320Z,985.5
2017-11-01T02:14:59.260Z,985.5
2017-11-01T02:16:01.197Z,985.5
2017-11-01T02:17:03.430Z,985.5
2017-11-01T02:18:05.396Z,985.4
2017-11-01T02:19:07.343Z,985.5
2017-11-01T02:20:09.324Z,985.5
2017-11-01T02:21:11.552Z,985.4
2017-11-01T02:22:13.459Z,985.4
2017-11-01T02:23:15.330Z,985.4
2017-11-01T02:24:17.309Z,985.4
2017-11-01T02:25:19.225Z,985.4
2017-11-01T02:26:21.181Z,985.4
2017-11-01T02:27:23.190Z,985.4
2017-11-01T02:28:25.295Z,985.4
2017-11-01T02:29:27.349Z,985.4
2017-11-01T02:30:29.299Z,985.4
2017-11-01T02:31:31.277Z,985.4
2017-11-01T02:32:33.558Z,985.3
2017-11-01T02:33:35.475Z,985.4
2017-11-01T02:34:37.349Z,985.4
2017-11-01T02:35:39.233Z,985.5
2017-11-01T02:36:41.184Z,985.5
2017-11-01T02:37:43.180Z,985.4
2017-11-01T02:38:45.108Z,985.5
2017-11-01T02:39:47.009Z,985.4
2017-11-01T02:40:48.947Z,985.4
2017-11-01T02:41:50.919Z,985.4
2017-11-01T02:42:53.213Z,985.4
2017-11-01T02:43:55.226Z,985.4
2017-11-01T02:44:57.140Z,985.3
2017-11-01T02:45:59.060Z,985.3
2017-11-01T02:47:00.982Z,985.3
2017-11-01T02:48:02.856Z,985.3
2017-11-01T02:49:04.693Z,985.3
2017-11-01T02:50:06.878Z,985.3
2017-11-01T02:51:08.737Z,985.4
2017-11-01T02:52:11.032Z,985.3
2017-11-01T02:53:12.953Z,985.3
2017-11-01T02:54:14.914Z,985.4
2017-11-01T02:55:16.885Z,985.4
2017-11-01T02:56:18.779Z,985.4
2017-11-01T02:57:20.685Z,985.3
2017-11-01T02:58:22.838Z,985.3
2017-11-01T02:59:24.817Z,985.4
2017-11-01T03:00:26.875Z,985.3
2017-11-01T03:01:28.953Z,985.3
2017-11-01T03:02:30.909Z,985.3
2017-11-01T03:03:32.883Z,985.3
2017-11-01T03:04:34.788Z,985.4
2017-11-01T03:05:36.640Z,985.3
2017-11-01T03:06:38.531Z,985.3
2017-11-01T03:07:40.647Z,985.3
2017-11-01T03:08:42.597Z,985.3
2017-11-01T03:09:44.523Z,985.2
2017-11-01T03:10:46.583Z,985.2
2017-11-01T03:11:48.479Z,985.3
2017-11-01T03:12:50.701Z,985.1
2017-11-01T03:13:53.091Z,985.2
2017-11-01T03:14:55.029Z,985.3
2017-11-01T03:15:57.023Z,985.2
2017-11-01T03:16:58.907Z,985.3
2017-11-01T03:18:00.914Z,985.3
2017-11-01T03:19:03.236Z,985.3
2017-11-01T03:20:05.164Z,985.3
2017-11-01T03:21:07.103Z,985.3
2017-11-01T03:22:09.051Z,985.2
2017-11-01T03:23:11.071Z,985.3
2017-11-01T03:24:12.981Z,985.2
2017-11-01T03:25:14.874Z,985.2
2017-11-01T03:26:16.824Z,985.2
2017-11-01T03:27:18.720Z,985.3
2017-11-01T03:28:20.643Z,985.2
2017-11-01T03:29:22.643Z,985.3
2017-11-01T03:30:24.636Z,985.2
2017-11-01T03:31:26.477Z,985.3
2017-11-01T03:32:28.440Z,985.3
2017-11-01T03:33:30.470Z,985.3
2017-11-01T03:34:32.440Z,985.3
2017-11-01T03:35:34.420Z,985.3
2017-11-01T03:36:36.409Z,985.3
2017-11-01T03:37:38.293Z,985.3
2017-11-01T03:38:40.196Z,985.3
2017-11-01T03:39:42.296Z,985.2
2017-11-01T03:40:44.203Z,985.3
2017-11-01T03:41:46.152Z,985.2
2017-11-01T03:42:48.044Z,985.3
2017-11-01T03:43:49.983Z,985.2
2017-11-01T03:44:52.223Z,985.2
2017-11-01T03:45:54.377Z,985.2
2017-11-01T03:46:56.330Z,985.2
2017-11-01T03:47:58.198Z,985.2
2017-11-01T03:49:00.113Z,985.1
2017-11-01T03:50:02.465Z,985.3
2017-11-01T03:51:04.556Z,985.2
2017-11-01T03:52:06.701Z,985.2
2017-11-01T03:53:08.609Z,985.2
2017-11-01T03:54:10.507Z,985.2
2017-11-01T03:55:12.685Z,985.2
2017-11-01T03:56:14.601Z,985.2
2017-11-01T03:57:16.497Z,985.2
2017-11-01T03:58:18.591Z,985.1
2017-11-01T03:59:20.658Z,985.1
2017-11-01T04:00:22.969Z,985.1
2017-11-01T04:01:25.018Z,985.1
2017-11-01T04:02:26.935Z,985.1
2017-11-01T04:03:28.863Z,985.1
2017-11-01T04:04:30.853Z,985
2017-11-01T04:05:33.187Z,985
2017-11-01T04:06:35.470Z,985
2017-11-01T04:07:37.429Z,985.1
2017-11-01T04:08:39.291Z,985
2017-11-01T04:09:41.287Z,985
2017-11-01T04:10:43.317Z,985
2017-11-01T04:11:45.510Z,985
2017-11-01T04:12:47.478Z,985
2017-11-01T04:13:49.448Z,985
2017-11-01T04:14:51.438Z,985
2017-11-01T04:15:53.368Z,985
2017-11-01T04:16:55.453Z,985
2017-11-01T04:17:57.375Z,985
2017-11-01T04:18:59.307Z,985.1
2017-11-01T04:20:01.253Z,985.1
2017-11-01T04:21:03.606Z,985
2017-11-01T04:22:05.539Z,985.1
2017-11-01T04:23:07.595Z,985
2017-11-01T04:24:09.554Z,985.1
2017-11-01T04:25:11.485Z,985
2017-11-01T04:26:13.713Z,985
2017-11-01T04:27:15.700Z,985.1
2017-11-01T04:28:17.852Z,985
2017-11-01T04:29:19.812Z,985
2017-11-01T04:30:21.819Z,985
2017-11-01T04:31:23.951Z,985
2017-11-01T04:32:26.016Z,985
2017-11-01T04:33:27.981Z,985.1
2017-11-01T04:34:29.995Z,985
2017-11-01T04:35:31.999Z,985
2017-11-01T04:36:33.968Z,985.1
2017-11-01T04:37:35.975Z,985.2
2017-11-01T04:38:37.954Z,985.1
2017-11-01T04:39:39.886Z,985.1
2017-11-01T04:40:41.786Z,985.1
2017-11-01T04:41:44.053Z,985.2
2017-11-01T04:42:46.083Z,985.2
2017-11-01T04:43:48.135Z,985.1
2017-11-01T04:44:50.116Z,985.1
2017-11-01T04:45:52.182Z,985
2017-11-01T04:46:54.407Z,985.1
2017-11-01T04:47:56.280Z,985.1
2017-11-01T04:48:58.274Z,985.1
2017-11-01T04:50:00.271Z,985.1
2017-11-01T04:51:02.271Z,985.1
2017-11-01T04:52:04.313Z,985.1
2017-11-01T04:53:06.319Z,985.1
2017-11-01T04:54:08.359Z,985.1
2017-11-01T04:55:10.345Z,985.1
2017-11-01T04:56:12.380Z,985.1
2017-11-01T04:57:14.785Z,985.1
2017-11-01T04:58:16.782Z,985.1
2017-11-01T04:59:18.846Z,985.1
2017-11-01T05:00:20.807Z,985.1
2017-11-01T05:01:22.737Z,985.1
2017-11-01T05:02:24.707Z,985.2
2017-11-01T05:03:26.719Z,985.1
2017-11-01T05:04:28.719Z,985
2017-11-01T05:05:30.662Z,985.1
2017-11-01T05:06:32.713Z,985.1
2017-11-01T05:07:35.009Z,985.2
2017-11-01T05:08:37.066Z,985.1
2017-11-01T05:09:39.224Z,985.2
2017-11-01T05:10:41.251Z,985.1
2017-11-01T05:11:43.285Z,985.2
2017-11-01T05:12:45.331Z,985.2
2017-11-01T05:13:51.174Z,985.1
2017-11-01T05:14:53.245Z,985.1
2017-11-01T05:15:55.236Z,985.1
2017-11-01T05:16:57.202Z,985.1
2017-11-01T05:17:59.142Z,985.1
2017-11-01T05:19:01.115Z,985.2
2017-11-01T05:20:03.148Z,985.1
2017-11-01T05:21:05.150Z,985.1
2017-11-01T05:22:07.161Z,985.2
2017-11-01T05:23:09.126Z,985.2
2017-11-01T05:24:11.077Z,985.2
2017-11-01T05:25:13.089Z,985.2
2017-11-01T05:26:15.065Z,985.2
2017-11-01T05:27:16.976Z,985.1
2017-11-01T05:28:18.901Z,985.1
2017-11-01T05:29:20.805Z,985.1
2017-11-01T05:30:22.882Z,985.1
2017-11-01T05:31:24.781Z,985.1
2017-11-01T05:32:26.746Z,985.2
2017-11-01T05:33:28.789Z,985.1
2017-11-01T05:34:30.870Z,985.1
2017-11-01T05:35:32.791Z,985.1
2017-11-01T05:36:34.729Z,985
2017-11-01T05:37:36.699Z,985.1
2017-11-01T05:38:39.022Z,985
2017-11-01T05:39:41.024Z,985
2017-11-01T05:40:43.061Z,985
2017-11-01T05:41:45.119Z,985
2017-11-01T05:42:47.064Z,985.1
2017-11-01T05:43:49.297Z,985
2017-11-01T05:44:51.205Z,985.2
2017-11-01T05:45:53.221Z,985.1
2017-11-01T05:46:55.204Z,985.1
2017-11-01T05:47:57.136Z,985.1
2017-11-01T05:48:59.106Z,985.1
2017-11-01T05:50:01.042Z,985.2
2017-11-01T05:51:03.043Z,985.1
2017-11-01T05:52:04.980Z,985.2
2017-11-01T05:53:06.986Z,985.2
2017-11-01T05:54:09.308Z,985.1
2017-11-01T05:55:11.209Z,985.2
2017-11-01T05:56:13.125Z,985.2
2017-11-01T05:57:15.006Z,985.2
2017-11-01T05:58:16.987Z,985.1
2017-11-01T05:59:19.165Z,985.2
2017-11-01T06:00:21.123Z,985.3
2017-11-01T06:01:23.039Z,985.2
2017-11-01T06:02:25.110Z,985.2
2017-11-01T06:03:26.998Z,985.2
2017-11-01T06:04:29.245Z,985.2
2017-11-01T06:05:31.144Z,985.2
2017-11-01T06:06:33.110Z,985.1
2017-11-01T06:07:35.204Z,985.1
2017-11-01T06:08:37.073Z,985.1
2017-11-01T06:09:39.305Z,985.1
2017-11-01T06:10:41.238Z,985
2017-11-01T06:11:43.155Z,985.1
2017-11-01T06:12:45.135Z,985.1
2017-11-01T06:13:47.080Z,985.1
2017-11-01T06:14:49.054Z,985.1
2017-11-01T06:15:50.976Z,985.1
2017-11-01T06:16:53.007Z,985.1
2017-11-01T06:17:54.924Z,985.1
2017-11-01T06:18:56.928Z,985.1
2017-11-01T06:19:58.887Z,985
2017-11-01T06:21:00.776Z,985.1
2017-11-01T06:22:02.709Z,985.1
2017-11-01T06:23:04.601Z,985.1
2017-11-01T06:24:07.259Z,985.1
2017-11-01T06:25:09.159Z,985.1
2017-11-01T06:26:11.104Z,985.1
2017-11-01T06:27:13.033Z,985.1
2017-11-01T06:28:14.941Z,985.1
2017-11-01T06:29:16.847Z,985.2
2017-11-01T06:30:19.149Z,985.2
2017-11-01T06:31:21.135Z,985.1
2017-11-01T06:32:23.030Z,985.1
2017-11-01T06:33:25.046Z,985.2
2017-11-01T06:34:26.979Z,985.1
2017-11-01T06:35:29.253Z,985.2
2017-11-01T06:36:31.181Z,985.2
2017-11-01T06:37:33.151Z,985.3
2017-11-01T06:38:35.085Z,985.2
2017-11-01T06:39:37.021Z,985.2
2017-11-01T06:40:39.416Z,985.3
2017-11-01T06:41:41.360Z,985.3
2017-11-01T06:42:43.235Z,985.3
2017-11-01T06:43:45.151Z,985.3
2017-11-01T06:44:47.074Z,985.3
2017-11-01T06:45:49.227Z,985.3
2017-11-01T06:46:51.151Z,985.3
2017-11-01T06:47:52.983Z,985.4
2017-11-01T06:48:54.940Z,985.4
2017-11-01T06:49:56.854Z,985.4
2017-11-01T06:50:59.086Z,985.4
2017-11-01T06:52:00.980Z,985.3
2017-11-01T06:53:02.885Z,985.4
2017-11-01T06:54:04.822Z,985.4
2017-11-01T06:55:06.709Z,985.4
2017-11-01T06:56:08.692Z,985.5
2017-11-01T06:57:10.554Z,985.5
2017-11-01T06:58:12.562Z,985.5
2017-11-01T06:59:14.514Z,985.5
2017-11-01T07:00:16.476Z,985.5
2017-11-01T07:01:18.437Z,985.5
2017-11-01T07:02:20.352Z,985.5
2017-11-01T07:03:22.253Z,985.5
2017-11-01T07:04:24.137Z,985.4
2017-11-01T07:05:26.004Z,985.4
2017-11-01T07:06:27.935Z,985.4
2017-11-01T07:07:29.888Z,985.4
2017-11-01T07:08:31.777Z,985.5
2017-11-01T07:09:33.743Z,985.4
2017-11-01T07:10:35.816Z,985.5
2017-11-01T07:11:37.745Z,985.3
2017-11-01T07:12:39.703Z,985.3
2017-11-01T07:13:41.584Z,985.4
2017-11-01T07:14:43.457Z,985.3
2017-11-01T07:15:45.334Z,985.3
2017-11-01T07:16:47.504Z,985.2
2017-11-01T07:17:49.402Z,985.2
2017-11-01T07:18:51.280Z,985.3
2017-11-01T07:19:53.133Z,985.4
2017-11-01T07:20:55.062Z,985.4
2017-11-01T07:21:57.063Z,985.4
2017-11-01T07:22:59.077Z,985.3
2017-11-01T07:24:00.947Z,985.4
2017-11-01T07:25:02.784Z,985.5
2017-11-01T07:26:04.808Z,985.4
2017-11-01T07:27:07.148Z,985.4
2017-11-01T07:28:09.053Z,985.5
2017-11-01T07:29:10.968Z,985.5
2017-11-01T07:30:12.789Z,985.5
2017-11-01T07:31:14.750Z,985.5
2017-11-01T07:32:16.717Z,985.5
2017-11-01T07:33:18.668Z,985.6
2017-11-01T07:34:20.588Z,985.6
2017-11-01T07:35:22.515Z,985.6
2017-11-01T07:36:24.383Z,985.6
2017-11-01T07:37:26.553Z,985.7
2017-11-01T07:38:28.478Z,985.6
2017-11-01T07:39:30.676Z,985.7
2017-11-01T07:40:32.529Z,985.7
2017-11-01T07:41:34.434Z,985.7
2017-11-01T07:42:36.524Z,985.7
2017-11-01T07:43:38.515Z,985.7
2017-11-01T07:44:40.439Z,985.7
2017-11-01T07:45:42.385Z,985.7
2017-11-01T07:46:44.389Z,985.7
2017-11-01T07:47:46.346Z,985.7
2017-11-01T07:48:48.265Z,985.6
2017-11-01T07:49:50.147Z,985.7
2017-11-01T07:50:52.089Z,985.8
2017-11-01T07:51:53.961Z,985.7
2017-11-01T07:52:55.921Z,985.7
2017-11-01T07:53:57.884Z,985.7
2017-11-01T07:54:59.850Z,985.7
2017-11-01T07:56:01.847Z,985.7
2017-11-01T07:57:03.701Z,985.7
2017-11-01T07:58:05.603Z,985.7
2017-11-01T07:59:07.529Z,985.7
2017-11-01T08:00:09.422Z,985.7
2017-11-01T08:01:11.413Z,985.7
2017-11-01T08:02:13.349Z,985.7
2017-11-01T08:03:15.351Z,985.7
2017-11-01T08:04:17.406Z,985.8
2017-11-01T08:05:19.395Z,985.8
2017-11-01T08:06:21.256Z,985.8
2017-11-01T08:07:23.183Z,985.8
2017-11-01T08:08:25.382Z,985.8
2017-11-01T08:09:27.343Z,985.7
2017-11-01T08:10:29.266Z,985.8
2017-11-01T08:11:31.198Z,985.9
2017-11-01T08:12:33.090Z,985.9
2017-11-01T08:13:35.154Z,985.9
2017-11-01T08:14:37.124Z,985.9
2017-11-01T08:15:39.117Z,985.9
2017-11-01T08:16:41.067Z,985.9
2017-11-01T08:17:42.963Z,985.9
2017-11-01T08:18:44.925Z,985.9
2017-11-01T08:19:46.934Z,986
2017-11-01T08:20:48.831Z,986
2017-11-01T08:21:50.712Z,986
2017-11-01T08:22:52.623Z,986
2017-11-01T08:23:54.903Z,985.9
2017-11-01T08:24:56.880Z,986
2017-11-01T08:25:58.835Z,985.9
2017-11-01T08:27:00.820Z,986
2017-11-01T08:28:02.749Z,986
2017-11-01T08:29:04.720Z,986
2017-11-01T08:30:06.621Z,986
2017-11-01T08:31:08.532Z,986
2017-11-01T08:32:10.496Z,985.9
2017-11-01T08:33:12.400Z,986
2017-11-01T08:34:14.658Z,986
2017-11-01T08:35:16.510Z,985.9
2017-11-01T08:36:18.456Z,986
2017-11-01T08:37:20.379Z,986
2017-11-01T08:38:22.328Z,985.9
2017-11-01T08:39:24.640Z,985.9
2017-11-01T08:40:26.590Z,985.9
2017-11-01T08:41:28.437Z,985.8
2017-11-01T08:42:30.426Z,985.9
2017-11-01T08:43:32.372Z,985.8
2017-11-01T08:44:34.289Z,985.9
2017-11-01T08:45:36.341Z,985.8
2017-11-01T08:46:38.228Z,985.7
2017-11-01T08:47:40.232Z,985.7
2017-11-01T08:48:43.293Z,985.7
2017-11-01T08:49:45.571Z,985.7
2017-11-01T08:50:47.484Z,985.7
2017-11-01T08:51:49.430Z,985.7
2017-11-01T08:52:51.292Z,985.6
2017-11-01T08:53:53.281Z,985.7
2017-11-01T08:54:55.207Z,985.6
2017-11-01T08:55:57.070Z,985.6
2017-11-01T08:56:59.032Z,985.6
2017-11-01T08:58:00.965Z,985.4
2017-11-01T08:59:02.923Z,985.5
2017-11-01T09:00:05.522Z,985.5
2017-11-01T09:01:07.706Z,985.6
2017-11-01T09:02:09.696Z,985.5
2017-11-01T09:03:11.697Z,985.5
2017-11-01T09:04:13.564Z,985.6
2017-11-01T09:05:15.794Z,985.6
2017-11-01T09:06:17.732Z,985.7
2017-11-01T09:07:19.642Z,985.7
2017-11-01T09:08:21.533Z,985.7
2017-11-01T09:09:23.402Z,985.7
2017-11-01T09:10:25.685Z,985.8
2017-11-01T09:11:27.654Z,985.8
2017-11-01T09:12:29.595Z,985.8
2017-11-01T09:13:31.510Z,985.8
2017-11-01T09:14:33.432Z,985.9
2017-11-01T09:15:35.459Z,985.8
2017-11-01T09:16:37.300Z,985.8
2017-11-01T09:17:39.213Z,985.9
2017-11-01T09:18:41.104Z,985.9
2017-11-01T09:19:42.979Z,985.9
2017-11-01T09:20:44.940Z,985.9
2017-11-01T09:21:46.841Z,985.9
2017-11-01T09:22:48.829Z,985.9
2017-11-01T09:23:50.923Z,985.9
2017-11-01T09:24:52.817Z,985.8
2017-11-01T09:25:54.853Z,985.8
2017-11-01T09:26:56.869Z,985.8
2017-11-01T09:27:58.764Z,985.9
2017-11-01T09:29:01.091Z,985.9
2017-11-01T09:30:03.033Z,985.8
2017-11-01T09:31:05.072Z,985.8
2017-11-01T09:32:07.019Z,985.8
2017-11-01T09:33:09.386Z,985.8
2017-11-01T09:34:11.274Z,985.8
2017-11-01T09:35:13.212Z,985.8
2017-11-01T09:36:15.386Z,985.7
2017-11-01T09:37:17.397Z,985.8
2017-11-01T09:38:19.339Z,985.7
2017-11-01T09:39:21.325Z,985.8
2017-11-01T09:40:23.309Z,985.7
2017-11-01T09:41:25.257Z,985.7
2017-11-01T09:42:27.232Z,985.7
2017-11-01T09:43:29.156Z,985.8
2017-11-01T09:44:31.088Z,985.7
2017-11-01T09:45:33.024Z,985.8
2017-11-01T09:46:36.081Z,985.8
2017-11-01T09:47:38.034Z,985.7
2017-11-01T09:48:39.908Z,985.7
2017-11-01T09:49:41.805Z,985.8
2017-11-01T09:50:43.709Z,985.9
2017-11-01T09:51:45.995Z,985.9
2017-11-01T09:52:47.935Z,985.9
2017-11-01T09:53:50.067Z,985.9
2017-11-01T09:54:51.968Z,985.9
2017-11-01T09:55:53.925Z,985.9
2017-11-01T09:56:56.156Z,985.9
2017-11-01T09:57:58.108Z,985.9
2017-11-01T09:59:00.059Z,985.9
2017-11-01T10:00:02.008Z,985.9
2017-11-01T10:01:04.010Z,985.8
2017-11-01T10:02:05.964Z,985.8
2017-11-01T10:03:08.663Z,985.8
2017-11-01T10:04:10.633Z,985.9
2017-11-01T10:05:12.598Z,985.8
2017-11-01T10:06:14.569Z,985.9
2017-11-01T10:07:16.608Z,985.9
2017-11-01T10:08:18.561Z,985.7
2017-11-01T10:09:20.416Z,985.9
2017-11-01T10:10:22.411Z,985.8
2017-11-01T10:11:24.359Z,985.8
2017-11-01T10:12:26.279Z,985.8
2017-11-01T10:13:28.278Z,985.8
2017-11-01T10:14:30.585Z,985.9
2017-11-01T10:15:32.594Z,985.9
2017-11-01T10:16:34.583Z,985.8
2017-11-01T10:17:36.503Z,985.8
2017-11-01T10:18:38.465Z,985.8
2017-11-01T10:19:40.470Z,985.9
2017-11-01T10:20:42.905Z,986
2017-11-01T10:21:44.935Z,985.9
2017-11-01T10:22:46.883Z,985.9
2017-11-01T10:23:48.825Z,986
2017-11-01T10:24:50.768Z,986
2017-11-01T10:25:52.746Z,986
2017-11-01T10:26:54.650Z,985.9
2017-11-01T10:27:56.607Z,986.1
2017-11-01T10:28:58.574Z,986
2017-11-01T10:30:00.529Z,986
2017-11-01T10:31:02.506Z,985.9
2017-11-01T10:32:04.456Z,985.9
2017-11-01T10:33:06.370Z,985.9
2017-11-01T10:34:08.403Z,985.9
2017-11-01T10:35:10.316Z,985.9
2017-11-01T10:36:12.221Z,985.9
2017-11-01T10:37:15.012Z,985.8
2017-11-01T10:38:16.995Z,985.9
2017-11-01T10:39:18.929Z,985.8
2017-11-01T10:40:20.796Z,985.8
2017-11-01T10:41:22.989Z,985.9
2017-11-01T10:42:24.905Z,985.9
2017-11-01T10:43:27.146Z,985.9
2017-11-01T10:44:29.118Z,985.9
2017-11-01T10:45:31.117Z,985.8
2017-11-01T10:46:33.174Z,985.8
2017-11-01T10:47:35.214Z,985.9
2017-11-01T10:48:37.399Z,985.9
2017-11-01T10:49:39.445Z,985.8
2017-11-01T10:50:41.454Z,985.7
2017-11-01T10:51:43.411Z,985.8
2017-11-01T10:52:45.341Z,985.7
2017-11-01T10:53:47.339Z,985.7
2017-11-01T10:54:49.206Z,985.7
2017-11-01T10:55:51.241Z,985.7
2017-11-01T10:56:53.143Z,985.8
2017-11-01T10:57:55.165Z,985.9
2017-11-01T10:58:57.474Z,985.9
2017-11-01T10:59:59.532Z,985.9
2017-11-01T11:01:01.430Z,985.9
2017-11-01T11:02:03.327Z,985.9
2017-11-01T11:03:05.242Z,986
2017-11-01T11:04:07.171Z,986
2017-11-01T11:05:09.043Z,986
2017-11-01T11:06:11.033Z,986
2017-11-01T11:07:12.946Z,986
2017-11-01T11:08:14.894Z,986
2017-11-01T11:09:17.955Z,986
2017-11-01T11:10:19.936Z,985.9
2017-11-01T11:11:21.977Z,986.1
2017-11-01T11:12:23.896Z,985.9
2017-11-01T11:13:25.854Z,985.9
2017-11-01T11:14:27.872Z,985.9
2017-11-01T11:15:29.842Z,985.9
2017-11-01T11:16:31.816Z,985.9
2017-11-01T11:17:33.832Z,985.9
2017-11-01T11:18:35.833Z,985.8
2017-11-01T11:19:37.807Z,985.7
2017-11-01T11:20:40.017Z,985.8
2017-11-01T11:21:41.933Z,985.8
2017-11-01T11:22:44.083Z,985.8
2017-11-01T11:23:45.961Z,985.8
2017-11-01T11:24:47.918Z,985.8
2017-11-01T11:25:49.873Z,985.8
2017-11-01T11:26:51.831Z,985.8
2017-11-01T11:27:53.815Z,985.7
2017-11-01T11:28:55.837Z,985.7
2017-11-01T11:29:57.786Z,985.7
2017-11-01T11:30:59.880Z,985.7
2017-11-01T11:32:01.797Z,985.7
2017-11-01T11:33:03.686Z,985.7
2017-11-01T11:34:05.833Z,985.8
2017-11-01T11:35:08.059Z,985.7
2017-11-01T11:36:09.971Z,985.7
2017-11-01T11:37:12.107Z,985.7
2017-11-01T11:38:13.984Z,985.7
2017-11-01T11:39:15.938Z,985.8
2017-11-01T11:40:17.892Z,985.7
2017-11-01T11:41:19.879Z,985.7
2017-11-01T11:42:21.770Z,985.6
2017-11-01T11:43:23.685Z,985.6
2017-11-01T11:44:25.631Z,985.6
2017-11-01T11:45:27.542Z,985.7
2017-11-01T11:46:29.661Z,985.6
2017-11-01T11:47:31.637Z,985.6
2017-11-01T11:48:33.607Z,985.6
2017-11-01T11:49:35.515Z,985.6
2017-11-01T11:50:37.699Z,985.6
2017-11-01T11:51:39.672Z,985.6
2017-11-01T11:52:41.606Z,985.6
2017-11-01T11:53:43.702Z,985.6
2017-11-01T11:54:45.645Z,985.6
2017-11-01T11:55:47.611Z,985.6
2017-11-01T11:56:49.635Z,985.7
2017-11-01T11:57:51.509Z,985.7
2017-11-01T11:58:53.397Z,985.7
2017-11-01T11:59:55.297Z,985.7
2017-11-01T12:00:57.238Z,985.7
2017-11-01T12:01:59.155Z,985.7
2017-11-01T12:03:01.146Z,985.7
2017-11-01T12:04:03.110Z,985.8
2017-11-01T12:05:05.148Z,985.7
2017-11-01T12:06:07.081Z,985.7
2017-11-01T12:07:08.979Z,985.8
2017-11-01T12:08:10.915Z,985.8
2017-11-01T12:09:12.894Z,985.8
2017-11-01T12:10:14.790Z,985.8
2017-11-01T12:11:16.754Z,985.7
2017-11-01T12:12:18.639Z,985.7
2017-11-01T12:13:20.640Z,985.6
2017-11-01T12:14:22.567Z,985.6
2017-11-01T12:15:24.466Z,985.6
2017-11-01T12:16:26.574Z,985.6
2017-11-01T12:17:28.452Z,985.6
2017-11-01T12:18:30.517Z,985.5
2017-11-01T12:19:32.413Z,985.5
2017-11-01T12:20:34.287Z,985.5
2017-11-01T12:21:36.271Z,985.5
2017-11-01T12:22:38.319Z,985.5
2017-11-01T12:23:40.255Z,985.5
2017-11-01T12:24:42.238Z,985.4
2017-11-01T12:25:44.175Z,985.5
2017-11-01T12:26:46.254Z,985.4
2017-11-01T12:27:48.228Z,985.5
2017-11-01T12:28:50.294Z,985.4
2017-11-01T12:29:52.268Z,985.4
2017-11-01T12:30:54.511Z,985.3
2017-11-01T12:31:56.454Z,985.3
2017-11-01T12:32:58.557Z,985.3
2017-11-01T12:34:00.524Z,985.4
2017-11-01T12:35:02.441Z,985.4
2017-11-01T12:36:04.446Z,985.3
2017-11-01T12:37:06.422Z,985.4
2017-11-01T12:38:08.317Z,985.4
2017-11-01T12:39:10.187Z,985.4
2017-11-01T12:40:12.103Z,985.4
2017-11-01T12:41:14.061Z,985.3
2017-11-01T12:42:16.544Z,985.3
2017-11-01T12:43:18.425Z,985.3
2017-11-01T12:44:20.355Z,985.3
2017-11-01T12:45:22.312Z,985.4
2017-11-01T12:46:24.277Z,985.3
2017-11-01T12:47:26.540Z,985.3
2017-11-01T12:48:28.497Z,985.4
2017-11-01T12:49:30.427Z,985.3
2017-11-01T12:50:32.617Z,985.3
2017-11-01T12:51:34.631Z,985.4
2017-11-01T12:52:36.861Z,985.3
2017-11-01T12:53:38.907Z,985.2
2017-11-01T12:54:40.955Z,985.2
2017-11-01T12:55:43.020Z,985.2
2017-11-01T12:56:45.014Z,985.2
2017-11-01T12:57:46.931Z,985.2
2017-11-01T12:58:48.906Z,985.1
2017-11-01T12:59:51.109Z,985.2
2017-11-01T13:00:52.995Z,985.2
2017-11-01T13:01:54.970Z,985.2
2017-11-01T13:02:57.038Z,985.2
2017-11-01T13:03:59.039Z,985.2
2017-11-01T13:05:01.010Z,985.1
2017-11-01T13:06:03.011Z,985.1
2017-11-01T13:07:04.909Z,985
2017-11-01T13:08:06.775Z,985.1
2017-11-01T13:09:08.951Z,985.1
2017-11-01T13:10:10.903Z,985
2017-11-01T13:11:12.873Z,985
2017-11-01T13:12:14.880Z,985
2017-11-01T13:13:16.862Z,985
2017-11-01T13:14:18.795Z,984.9
2017-11-01T13:15:20.800Z,984.9
2017-11-01T13:16:22.688Z,984.9
2017-11-01T13:17:24.648Z,984.8
2017-11-01T13:18:26.910Z,984.8
2017-11-01T13:19:28.887Z,984.9
2017-11-01T13:20:30.836Z,984.9
2017-11-01T13:21:32.814Z,984.9
2017-11-01T13:22:34.709Z,984.9
2017-11-01T13:23:36.630Z,984.8